Time;durP1;ratioP1;P1;durP2;ratioP2;P2;SDS_P1;SDS_P2;PMS_P1;PMS_P2;Temp;Humidity;BMP_temperature;BMP_pressure;BME280_temperature;BME280_humidity;BME280_pressure;Samples;Min_cycle;Max_cycle;Signal;HPM_P1;HPM_P2
2023/05/09 00:00:53;;;;;;;27.65;20.63;;;;;;;;;;5108845;28;20045;-69
2023/05/09 00:03:19;;;;;;;30.60;21.35;;;;;;;;;;5108032;28;20050;-69
2023/05/09 00:05:46;;;;;;;34.45;21.80;;;;;;;;;;5100203;28;20411;-69
2023/05/09 00:08:12;;;;;;;33.22;20.35;;;;;;;;;;5102298;28;20142;-69
2023/05/09 00:10:38;;;;;;;34.08;22.55;;;;;;;;;;5105704;28;20040;-69
2023/05/09 00:13:05;;;;;;;35.95;22.90;;;;;;;;;;5102947;27;20043;-69
2023/05/09 00:15:32;;;;;;;38.70;23.25;;;;;;;;;;5098124;28;20256;-69
2023/05/09 00:17:58;;;;;;;41.55;21.77;;;;;;;;;;5098286;28;20040;-69
2023/05/09 00:20:24;;;;;;;35.58;21.42;;;;;;;;;;5104593;28;20063;-69
2023/05/09 00:22:50;;;;;;;34.70;21.33;;;;;;;;;;5102482;27;20046;-69
2023/05/09 00:25:16;;;;;;;34.75;22.35;;;;;;;;;;5095441;28;20062;-70
2023/05/09 00:27:42;;;;;;;36.60;22.10;;;;;;;;;;5101229;28;20478;-69
2023/05/09 00:30:08;;;;;;;36.42;20.23;;;;;;;;;;5103021;27;20040;-69
2023/05/09 00:32:35;;;;;;;33.50;19.48;;;;;;;;;;5105822;27;20125;-69
2023/05/09 00:35:02;;;;;;;25.73;18.65;;;;;;;;;;5099083;27;20505;-69
2023/05/09 00:37:29;;;;;;;35.00;21.70;;;;;;;;;;5101711;27;20066;-68
2023/05/09 00:39:55;;;;;;;33.92;20.83;;;;;;;;;;5102376;27;20044;-68
2023/05/09 00:42:21;;;;;;;33.40;19.95;;;;;;;;;;5106783;27;20065;-69
2023/05/09 00:44:47;;;;;;;30.35;20.15;;;;;;;;;;5107308;27;20490;-70
2023/05/09 00:47:14;;;;;;;29.40;17.33;;;;;;;;;;5105423;27;20035;-69
2023/05/09 00:49:40;;;;;;;30.52;20.35;;;;;;;;;;5099042;27;20079;-69
2023/05/09 00:52:06;;;;;;;34.95;20.50;;;;;;;;;;5109468;27;20050;-69
2023/05/09 01:00:15;;;;;;;30.45;20.48;;;;;;;;;;5100005;27;20046;-69
2023/05/09 01:02:42;;;;;;;30.42;19.23;;;;;;;;;;5095789;28;20035;-70
2023/05/09 01:05:08;;;;;;;32.85;20.35;;;;;;;;;;5102209;27;20483;-69
2023/05/09 01:07:40;;;;;;;27.63;18.52;;;;;;;;;;5107201;27;20527;-69
2023/05/09 01:10:06;;;;;;;31.05;20.52;;;;;;;;;;5106136;27;20043;-69
2023/05/09 01:12:32;;;;;;;28.90;20.65;;;;;;;;;;5106542;27;20035;-69
2023/05/09 01:15:01;;;;;;;35.03;21.42;;;;;;;;;;5101405;27;20111;-69
2023/05/09 01:17:46;;;;;;;31.40;20.90;;;;;;;;;;5106836;27;20050;-69
2023/05/09 01:20:17;;;;;;;34.97;22.25;;;;;;;;;;5101580;27;20039;-69
2023/05/09 01:22:48;;;;;;;33.28;18.83;;;;;;;;;;5107280;27;20028;-69
2023/05/09 01:25:14;;;;;;;35.90;22.23;;;;;;;;;;5111013;27;20492;-69
2023/05/09 01:27:59;;;;;;;36.97;20.98;;;;;;;;;;5109016;27;20046;-69
2023/05/09 01:30:26;;;;;;;32.55;20.05;;;;;;;;;;5104946;27;20043;-69
2023/05/09 01:32:55;;;;;;;38.97;21.90;;;;;;;;;;5098305;27;20044;-69
2023/05/09 01:35:23;;;;;;;32.50;19.48;;;;;;;;;;5107243;27;20572;-69
2023/05/09 01:37:50;;;;;;;37.20;19.73;;;;;;;;;;5101353;27;20166;-70
2023/05/09 01:40:20;;;;;;;32.83;21.00;;;;;;;;;;5108181;27;20516;-69
2023/05/09 01:42:55;;;;;;;32.47;21.33;;;;;;;;;;5098173;27;20102;-69
2023/05/09 01:45:22;;;;;;;36.30;21.98;;;;;;;;;;5100026;27;20451;-69
2023/05/09 01:47:48;;;;;;;34.47;22.52;;;;;;;;;;5112569;27;20062;-69
2023/05/09 01:50:16;;;;;;;31.25;21.70;;;;;;;;;;5109327;27;20039;-69
2023/05/09 01:52:42;;;;;;;36.20;22.17;;;;;;;;;;5107064;27;20070;-69
2023/05/09 01:55:10;;;;;;;33.65;22.85;;;;;;;;;;5107809;27;20063;-69
2023/05/09 01:57:36;;;;;;;35.97;20.52;;;;;;;;;;5110369;27;20469;-69
2023/05/09 02:00:03;;;;;;;38.22;22.85;;;;;;;;;;5099434;28;20036;-69
2023/05/09 02:02:29;;;;;;;37.45;23.30;;;;;;;;;;5100793;27;20040;-69
2023/05/09 02:04:57;;;;;;;37.97;22.67;;;;;;;;;;5104173;27;20317;-69
2023/05/09 02:07:24;;;;;;;41.30;24.42;;;;;;;;;;5103162;27;20059;-69
2023/05/09 02:09:52;;;;;;;35.95;23.60;;;;;;;;;;5098766;27;20042;-69
2023/05/09 02:12:19;;;;;;;39.42;22.80;;;;;;;;;;5108685;27;20127;-69
2023/05/09 02:14:45;;;;;;;35.33;22.90;;;;;;;;;;5095959;27;20138;-69
2023/05/09 02:17:15;;;;;;;36.75;24.50;;;;;;;;;;5106330;27;20163;-69
2023/05/09 02:19:42;;;;;;;38.15;25.30;;;;;;;;;;5097808;27;20039;-69
2023/05/09 02:22:08;;;;;;;37.30;24.08;;;;;;;;;;5101228;27;20108;-69
2023/05/09 02:24:34;;;;;;;39.85;25.88;;;;;;;;;;5104469;27;20027;-69
2023/05/09 02:27:03;;;;;;;37.55;24.38;;;;;;;;;;5103841;28;20081;-69
2023/05/09 02:29:37;;;;;;;40.83;23.58;;;;;;;;;;5097488;27;20182;-69
2023/05/09 02:32:03;;;;;;;35.42;22.58;;;;;;;;;;5102077;27;20052;-69
2023/05/09 02:34:30;;;;;;;40.25;24.92;;;;;;;;;;5102244;27;20081;-69
2023/05/09 02:36:56;;;;;;;32.72;24.73;;;;;;;;;;5101334;27;20122;-69
2023/05/09 02:39:22;;;;;;;40.22;24.45;;;;;;;;;;5102360;27;20180;-69
2023/05/09 02:41:48;;;;;;;49.30;27.98;;;;;;;;;;5093833;27;20127;-69
2023/05/09 02:44:14;;;;;;;38.20;26.15;;;;;;;;;;5095028;27;20107;-69
2023/05/09 02:46:41;;;;;;;42.65;27.02;;;;;;;;;;5110063;27;20159;-69
2023/05/09 02:49:07;;;;;;;45.20;26.20;;;;;;;;;;5109853;27;20088;-69
2023/05/09 02:51:33;;;;;;;42.47;26.52;;;;;;;;;;5104877;27;20512;-69
2023/05/09 02:53:59;;;;;;;43.08;28.73;;;;;;;;;;5099137;27;20074;-69
2023/05/09 02:56:25;;;;;;;42.03;27.75;;;;;;;;;;5098127;27;20560;-69
2023/05/09 02:58:51;;;;;;;43.22;27.42;;;;;;;;;;5096163;28;20122;-69
2023/05/09 03:01:18;;;;;;;46.95;27.50;;;;;;;;;;5112376;27;20039;-69
2023/05/09 03:03:44;;;;;;;46.55;29.15;;;;;;;;;;5106999;27;20092;-69
2023/05/09 03:06:11;;;;;;;45.15;27.00;;;;;;;;;;5109132;27;20520;-69
2023/05/09 03:08:37;;;;;;;47.35;26.98;;;;;;;;;;5098290;27;20113;-69
2023/05/09 03:11:03;;;;;;;46.55;28.65;;;;;;;;;;5096411;27;20097;-69
2023/05/09 03:13:29;;;;;;;46.20;29.17;;;;;;;;;;5108571;27;20405;-69
2023/05/09 03:15:55;;;;;;;49.35;29.55;;;;;;;;;;5102340;27;20341;-69
2023/05/09 03:18:21;;;;;;;60.33;32.05;;;;;;;;;;5095591;27;20047;-69
2023/05/09 03:20:48;;;;;;;44.80;27.90;;;;;;;;;;5101770;27;20114;-69
2023/05/09 03:23:14;;;;;;;52.10;29.15;;;;;;;;;;5111156;27;20032;-69
2023/05/09 03:25:40;;;;;;;55.88;32.92;;;;;;;;;;5103350;27;20436;-69
2023/05/09 03:28:06;;;;;;;48.28;28.10;;;;;;;;;;5102762;27;20051;-69
2023/05/09 03:30:32;;;;;;;44.20;26.35;;;;;;;;;;5098191;28;20397;-69
2023/05/09 03:32:58;;;;;;;56.45;31.77;;;;;;;;;;5096564;28;20039;-69
2023/05/09 03:35:25;;;;;;;43.25;31.00;;;;;;;;;;5103966;27;20047;-69
2023/05/09 03:37:51;;;;;;;49.47;29.88;;;;;;;;;;5100575;28;20036;-69
2023/05/09 03:40:17;;;;;;;51.38;31.25;;;;;;;;;;5111155;28;20042;-69
2023/05/09 03:42:43;;;;;;;54.45;31.13;;;;;;;;;;5100983;28;20047;-69
2023/05/09 03:45:09;;;;;;;44.17;29.25;;;;;;;;;;5110512;28;20043;-68
2023/05/09 03:47:36;;;;;;;49.92;30.73;;;;;;;;;;5094606;27;20035;-69
2023/05/09 03:50:03;;;;;;;51.92;29.77;;;;;;;;;;5094877;28;20066;-69
2023/05/09 03:52:29;;;;;;;48.45;28.73;;;;;;;;;;5099459;28;20044;-69
2023/05/09 03:54:55;;;;;;;51.83;29.15;;;;;;;;;;5106184;28;20080;-69
2023/05/09 03:57:21;;;;;;;51.90;30.13;;;;;;;;;;5091906;28;20080;-69
2023/05/09 03:59:47;;;;;;;54.88;33.05;;;;;;;;;;5102902;28;20454;-69
2023/05/09 04:02:13;;;;;;;52.67;32.53;;;;;;;;;;5101677;28;20068;-68
2023/05/09 04:04:39;;;;;;;56.05;30.17;;;;;;;;;;5083522;28;20449;-69
2023/05/09 04:07:06;;;;;;;47.42;29.75;;;;;;;;;;5101770;27;20072;-69
2023/05/09 04:09:32;;;;;;;50.90;31.60;;;;;;;;;;5104943;27;20039;-70
2023/05/09 04:11:58;;;;;;;52.83;34.17;;;;;;;;;;5099338;27;20062;-69
2023/05/09 04:14:24;;;;;;;52.67;32.63;;;;;;;;;;5107448;27;20485;-69
2023/05/09 04:16:50;;;;;;;59.15;33.72;;;;;;;;;;5104426;27;20039;-69
2023/05/09 04:19:16;;;;;;;50.67;31.13;;;;;;;;;;5102257;27;20093;-69
2023/05/09 04:21:42;;;;;;;55.58;31.38;;;;;;;;;;5101896;27;20405;-69
2023/05/09 04:24:09;;;;;;;64.65;35.03;;;;;;;;;;5105175;27;20043;-69
2023/05/09 04:26:37;;;;;;;65.28;38.22;;;;;;;;;;5102710;27;20036;-68
2023/05/09 04:29:03;;;;;;;60.30;35.67;;;;;;;;;;5101456;27;20088;-69
2023/05/09 04:31:30;;;;;;;64.97;34.70;;;;;;;;;;5103477;28;20188;-68
2023/05/09 04:33:59;;;;;;;53.42;35.42;;;;;;;;;;5081232;27;20389;-69
2023/05/09 04:36:26;;;;;;;49.72;30.20;;;;;;;;;;5106116;27;20169;-69
2023/05/09 04:38:52;;;;;;;56.92;35.20;;;;;;;;;;5103018;27;20493;-70
2023/05/09 04:41:18;;;;;;;67.10;36.33;;;;;;;;;;5104641;27;20045;-69
2023/05/09 04:43:44;;;;;;;59.35;33.00;;;;;;;;;;5096495;27;20055;-69
2023/05/09 04:46:11;;;;;;;70.07;37.13;;;;;;;;;;5100703;27;20518;-69
2023/05/09 04:48:37;;;;;;;65.05;38.55;;;;;;;;;;5089553;28;20389;-69
2023/05/09 04:51:03;;;;;;;61.17;35.80;;;;;;;;;;5099554;27;20028;-69
2023/05/09 04:53:29;;;;;;;58.55;36.10;;;;;;;;;;5096266;27;20039;-69
2023/05/09 04:55:55;;;;;;;54.67;34.45;;;;;;;;;;5114367;27;20049;-69
2023/05/09 04:58:21;;;;;;;57.88;34.03;;;;;;;;;;5101703;27;20047;-69
2023/05/09 05:00:48;;;;;;;75.93;39.75;;;;;;;;;;5106215;27;20378;-69
2023/05/09 05:03:16;;;;;;;64.85;38.10;;;;;;;;;;5102307;27;20039;-69
2023/05/09 05:05:42;;;;;;;59.95;36.10;;;;;;;;;;5112712;27;20477;-69
2023/05/09 05:08:09;;;;;;;61.08;35.92;;;;;;;;;;5106998;27;20506;-69
2023/05/09 05:10:35;;;;;;;74.22;40.38;;;;;;;;;;5103379;27;20126;-69
2023/05/09 05:13:01;;;;;;;72.45;38.58;;;;;;;;;;5108923;27;20062;-69
2023/05/09 05:15:27;;;;;;;72.90;41.75;;;;;;;;;;5104414;27;20058;-69
2023/05/09 05:17:53;;;;;;;61.78;37.90;;;;;;;;;;5096029;27;20126;-69
2023/05/09 05:20:20;;;;;;;66.55;39.05;;;;;;;;;;5099387;27;20156;-69
2023/05/09 05:22:46;;;;;;;73.07;41.33;;;;;;;;;;5099399;27;20036;-69
2023/05/09 05:25:12;;;;;;;76.13;41.42;;;;;;;;;;5101951;27;20571;-69
2023/05/09 05:27:38;;;;;;;66.70;39.55;;;;;;;;;;5102561;27;20049;-69
2023/05/09 05:30:05;;;;;;;70.30;38.67;;;;;;;;;;5098684;27;20047;-69
2023/05/09 05:32:31;;;;;;;67.78;36.97;;;;;;;;;;5107078;27;20073;-69
2023/05/09 05:34:57;;;;;;;62.08;38.60;;;;;;;;;;5104042;27;20044;-69
2023/05/09 05:37:23;;;;;;;63.90;38.42;;;;;;;;;;5103472;27;20039;-69
2023/05/09 05:39:50;;;;;;;64.78;37.80;;;;;;;;;;5088771;28;20055;-68
2023/05/09 05:42:17;;;;;;;68.07;39.55;;;;;;;;;;5095070;28;20046;-69
2023/05/09 05:44:43;;;;;;;62.42;37.63;;;;;;;;;;5098076;27;20547;-69
2023/05/09 05:47:09;;;;;;;69.93;41.33;;;;;;;;;;5096040;27;20046;-69
2023/05/09 05:49:35;;;;;;;71.25;38.92;;;;;;;;;;5101980;27;20076;-69
2023/05/09 05:52:01;;;;;;;58.17;38.65;;;;;;;;;;5100296;28;20039;-69
2023/05/09 05:54:27;;;;;;;69.85;40.13;;;;;;;;;;5098162;27;20077;-69
2023/05/09 05:56:54;;;;;;;67.35;39.47;;;;;;;;;;5087764;27;20054;-69
2023/05/09 05:59:20;;;;;;;69.85;41.03;;;;;;;;;;5107334;27;20038;-69
2023/05/09 06:01:46;;;;;;;78.50;42.10;;;;;;;;;;5107444;27;20104;-69
2023/05/09 06:04:12;;;;;;;58.13;37.55;;;;;;;;;;5104182;27;20231;-69
2023/05/09 06:06:38;;;;;;;64.57;39.22;;;;;;;;;;5098662;27;20055;-69
2023/05/09 06:09:05;;;;;;;64.50;38.47;;;;;;;;;;5103901;27;20044;-70
2023/05/09 06:11:31;;;;;;;73.93;39.85;;;;;;;;;;5099651;27;20401;-69
2023/05/09 06:13:57;;;;;;;67.80;39.40;;;;;;;;;;5099102;27;20478;-69
2023/05/09 06:16:23;;;;;;;68.97;41.08;;;;;;;;;;5110760;27;20046;-69
2023/05/09 06:18:49;;;;;;;75.82;40.88;;;;;;;;;;5106072;27;20119;-69
2023/05/09 06:21:15;;;;;;;74.10;40.70;;;;;;;;;;5099430;27;20040;-69
2023/05/09 06:23:41;;;;;;;64.32;38.00;;;;;;;;;;5093494;27;20032;-69
2023/05/09 06:26:07;;;;;;;75.05;39.60;;;;;;;;;;5105630;27;20108;-69
2023/05/09 06:28:34;;;;;;;66.95;42.10;;;;;;;;;;5104393;27;20050;-69
2023/05/09 06:31:00;;;;;;;71.22;40.88;;;;;;;;;;5094956;27;20555;-69
2023/05/09 06:33:26;;;;;;;66.35;40.28;;;;;;;;;;5094494;27;20040;-68
2023/05/09 06:35:52;;;;;;;75.90;40.83;;;;;;;;;;5095935;27;20147;-69
2023/05/09 06:38:18;;;;;;;75.90;40.50;;;;;;;;;;5098662;27;20473;-69
2023/05/09 06:40:45;;;;;;;72.35;41.40;;;;;;;;;;5106593;27;20042;-69
2023/05/09 06:43:11;;;;;;;64.95;39.78;;;;;;;;;;5103911;27;20036;-69
2023/05/09 06:45:37;;;;;;;68.13;39.92;;;;;;;;;;5098149;27;20036;-69
2023/05/09 06:48:03;;;;;;;83.05;43.92;;;;;;;;;;5100428;27;20057;-68
2023/05/09 06:50:29;;;;;;;80.55;43.30;;;;;;;;;;5099373;27;20497;-70
2023/05/09 06:52:55;;;;;;;64.43;39.22;;;;;;;;;;5103611;27;20039;-69
2023/05/09 06:55:22;;;;;;;73.63;41.03;;;;;;;;;;5110432;27;20350;-69
2023/05/09 06:57:48;;;;;;;71.45;39.60;;;;;;;;;;5104946;27;20036;-69
2023/05/09 07:00:14;;;;;;;69.88;40.53;;;;;;;;;;5109699;27;20484;-69
2023/05/09 07:02:41;;;;;;;70.35;41.03;;;;;;;;;;5098805;27;20047;-69
2023/05/09 07:05:08;;;;;;;68.60;39.42;;;;;;;;;;5108638;27;20126;-69
2023/05/09 07:07:35;;;;;;;73.22;41.38;;;;;;;;;;5099689;27;20262;-69
2023/05/09 07:10:03;;;;;;;69.53;41.15;;;;;;;;;;5102919;27;20496;-69
2023/05/09 07:12:32;;;;;;;73.05;43.05;;;;;;;;;;5106754;28;20386;-69
2023/05/09 07:14:59;;;;;;;74.03;43.17;;;;;;;;;;5104360;27;20095;-70
2023/05/09 07:17:25;;;;;;;82.68;43.47;;;;;;;;;;5107401;27;20504;-70
2023/05/09 07:19:51;;;;;;;84.30;45.13;;;;;;;;;;5098395;28;20046;-69
2023/05/09 07:22:17;;;;;;;72.35;41.50;;;;;;;;;;5104296;28;20038;-69
2023/05/09 07:24:45;;;;;;;73.43;42.17;;;;;;;;;;5106231;27;20032;-69
2023/05/09 07:27:11;;;;;;;73.97;42.20;;;;;;;;;;5103863;27;20036;-71
2023/05/09 07:29:37;;;;;;;73.00;42.03;;;;;;;;;;5101254;27;20546;-69
2023/05/09 07:32:03;;;;;;;69.65;43.25;;;;;;;;;;5111984;27;20118;-69
2023/05/09 07:34:29;;;;;;;70.30;41.97;;;;;;;;;;5106354;28;20047;-69
2023/05/09 07:36:57;;;;;;;72.85;42.92;;;;;;;;;;5101910;28;20040;-69
2023/05/09 07:39:23;;;;;;;72.60;42.38;;;;;;;;;;5097611;27;20040;-69
2023/05/09 07:41:49;;;;;;;79.30;41.88;;;;;;;;;;5114506;27;20039;-69
2023/05/09 07:44:15;;;;;;;71.07;42.28;;;;;;;;;;5112338;27;20097;-69
2023/05/09 07:46:41;;;;;;;63.72;39.55;;;;;;;;;;5113141;27;20044;-69
2023/05/09 07:49:08;;;;;;;62.38;38.75;;;;;;;;;;5102796;27;20124;-69
2023/05/09 07:51:34;;;;;;;68.13;40.92;;;;;;;;;;5105503;27;20115;-69
2023/05/09 07:54:00;;;;;;;70.10;41.97;;;;;;;;;;5104112;27;20450;-69
2023/05/09 07:56:26;;;;;;;70.80;42.00;;;;;;;;;;5106210;27;20526;-69
2023/05/09 07:58:52;;;;;;;68.47;40.60;;;;;;;;;;5113293;27;20070;-69
2023/05/09 08:01:18;;;;;;;57.70;37.25;;;;;;;;;;5112969;27;20572;-69
2023/05/09 08:03:45;;;;;;;69.95;40.20;;;;;;;;;;5103653;27;20058;-69
2023/05/09 08:06:11;;;;;;;69.13;40.15;;;;;;;;;;5111300;27;20277;-69
2023/05/09 08:08:37;;;;;;;60.97;37.85;;;;;;;;;;5109350;27;20046;-69
2023/05/09 08:11:04;;;;;;;60.35;35.28;;;;;;;;;;5110133;27;20046;-69
2023/05/09 08:13:30;;;;;;;59.17;34.60;;;;;;;;;;5103358;27;20073;-69
2023/05/09 08:15:56;;;;;;;64.18;36.10;;;;;;;;;;5109332;27;20051;-69
2023/05/09 08:18:22;;;;;;;49.22;34.92;;;;;;;;;;5105338;27;20051;-69
2023/05/09 08:20:49;;;;;;;54.35;33.88;;;;;;;;;;5112503;27;20082;-69
2023/05/09 08:23:15;;;;;;;55.70;35.35;;;;;;;;;;5102856;27;20412;-69
2023/05/09 08:25:42;;;;;;;61.40;35.28;;;;;;;;;;5099959;27;20040;-69
2023/05/09 08:28:08;;;;;;;57.58;37.60;;;;;;;;;;5110791;27;20039;-69
2023/05/09 08:30:34;;;;;;;54.70;35.83;;;;;;;;;;5112133;27;20169;-69
2023/05/09 08:33:00;;;;;;;53.72;35.00;;;;;;;;;;5102140;27;20127;-69
2023/05/09 08:35:26;;;;;;;55.00;33.13;;;;;;;;;;5105232;27;20051;-69
2023/05/09 08:37:53;;;;;;;52.47;33.05;;;;;;;;;;5111577;27;20036;-69
2023/05/09 08:40:19;;;;;;;54.90;33.47;;;;;;;;;;5108594;27;20516;-69
2023/05/09 08:42:48;;;;;;;47.30;31.83;;;;;;;;;;5112041;27;20493;-69
2023/05/09 08:45:15;;;;;;;47.38;31.25;;;;;;;;;;5111137;27;20035;-69
2023/05/09 08:47:42;;;;;;;50.55;31.50;;;;;;;;;;5095963;27;20114;-69
2023/05/09 08:50:10;;;;;;;43.95;29.15;;;;;;;;;;5106807;27;20047;-69
2023/05/09 08:52:37;;;;;;;43.95;27.52;;;;;;;;;;5102921;27;20051;-69
2023/05/09 08:55:03;;;;;;;38.35;25.38;;;;;;;;;;5106521;28;20039;-69
2023/05/09 08:57:32;;;;;;;33.63;22.45;;;;;;;;;;5104604;27;20071;-69
2023/05/09 08:59:58;;;;;;;35.13;23.85;;;;;;;;;;5112695;27;20083;-69
2023/05/09 09:02:24;;;;;;;37.20;23.55;;;;;;;;;;5098755;27;20123;-68
2023/05/09 09:04:51;;;;;;;36.70;24.48;;;;;;;;;;5113174;27;20078;-69
2023/05/09 09:07:17;;;;;;;26.65;20.05;;;;;;;;;;5102528;27;20059;-69
2023/05/09 09:09:45;;;;;;;32.15;21.67;;;;;;;;;;5099791;27;20201;-69
2023/05/09 09:12:11;;;;;;;28.88;19.85;;;;;;;;;;5104629;27;20114;-69
2023/05/09 09:14:38;;;;;;;29.30;19.15;;;;;;;;;;5106107;27;20396;-69
2023/05/09 09:17:05;;;;;;;33.58;21.13;;;;;;;;;;5107096;27;20048;-69
2023/05/09 09:19:32;;;;;;;31.73;20.20;;;;;;;;;;5102164;27;20042;-69
2023/05/09 09:21:59;;;;;;;29.92;19.95;;;;;;;;;;5114342;27;20031;-70
2023/05/09 09:24:25;;;;;;;29.17;18.42;;;;;;;;;;5109762;27;20165;-69
2023/05/09 09:26:51;;;;;;;28.35;18.67;;;;;;;;;;5100532;27;20040;-69
2023/05/09 09:29:19;;;;;;;28.13;16.98;;;;;;;;;;5110960;27;20046;-69
2023/05/09 09:31:46;;;;;;;28.83;18.80;;;;;;;;;;5113181;27;20039;-69
2023/05/09 09:34:13;;;;;;;32.67;19.58;;;;;;;;;;5109551;27;20044;-69
2023/05/09 09:36:39;;;;;;;27.13;17.17;;;;;;;;;;5100112;27;20047;-69
2023/05/09 09:39:06;;;;;;;25.60;17.20;;;;;;;;;;5106899;27;20043;-69
2023/05/09 09:41:32;;;;;;;27.42;16.45;;;;;;;;;;5111548;27;20553;-70
2023/05/09 09:43:58;;;;;;;27.98;17.95;;;;;;;;;;5104738;27;20036;-69
2023/05/09 09:46:25;;;;;;;26.20;17.67;;;;;;;;;;5108788;27;20036;-69
2023/05/09 09:48:55;;;;;;;24.73;16.58;;;;;;;;;;5110986;27;20084;-69
2023/05/09 09:51:21;;;;;;;27.58;17.75;;;;;;;;;;5106188;27;20052;-69
2023/05/09 09:53:48;;;;;;;25.67;17.23;;;;;;;;;;5106436;27;20048;-69
2023/05/09 09:56:14;;;;;;;28.10;16.77;;;;;;;;;;5099669;27;20481;-69
2023/05/09 09:58:40;;;;;;;28.30;16.75;;;;;;;;;;5089446;28;20036;-69
2023/05/09 10:01:12;;;;;;;24.65;17.10;;;;;;;;;;5106332;27;20080;-69
2023/05/09 10:03:43;;;;;;;32.20;20.65;;;;;;;;;;5102955;27;20158;-69
2023/05/09 10:06:13;;;;;;;24.52;16.73;;;;;;;;;;5098189;27;20106;-69
2023/05/09 10:08:40;;;;;;;27.45;17.90;;;;;;;;;;5109027;27;20066;-69
2023/05/09 10:11:06;;;;;;;22.25;17.05;;;;;;;;;;5109635;27;20039;-69
2023/05/09 10:13:37;;;;;;;26.92;17.50;;;;;;;;;;5100221;27;20040;-69
2023/05/09 10:16:04;;;;;;;26.92;17.88;;;;;;;;;;5104709;27;20149;-69
2023/05/09 10:18:31;;;;;;;25.85;19.13;;;;;;;;;;5103478;27;20106;-69
2023/05/09 10:21:02;;;;;;;27.15;17.55;;;;;;;;;;5101606;27;20046;-69
2023/05/09 10:23:34;;;;;;;26.65;17.52;;;;;;;;;;5097940;27;20214;-69
2023/05/09 10:26:05;;;;;;;26.13;18.15;;;;;;;;;;5111110;27;20043;-69
2023/05/09 10:28:32;;;;;;;27.30;18.90;;;;;;;;;;5112625;27;20421;-69
2023/05/09 10:31:08;;;;;;;31.15;20.15;;;;;;;;;;5103287;27;20040;-69
2023/05/09 10:33:40;;;;;;;23.88;17.17;;;;;;;;;;5104171;27;20036;-69
2023/05/09 10:36:07;;;;;;;24.88;17.83;;;;;;;;;;5100719;27;20046;-69
2023/05/09 10:38:33;;;;;;;23.08;16.77;;;;;;;;;;5110442;27;20191;-69
2023/05/09 10:41:00;;;;;;;27.48;19.20;;;;;;;;;;5103679;27;20044;-69
2023/05/09 10:43:26;;;;;;;33.22;17.65;;;;;;;;;;5096911;27;20388;-69
2023/05/09 10:45:53;;;;;;;25.20;18.88;;;;;;;;;;5108282;27;20050;-69
2023/05/09 10:48:19;;;;;;;28.40;17.55;;;;;;;;;;5105866;27;20042;-69
2023/05/09 10:50:45;;;;;;;25.23;18.00;;;;;;;;;;5097524;27;20485;-69
2023/05/09 10:53:18;;;;;;;25.20;19.65;;;;;;;;;;5107125;27;20496;-69
2023/05/09 10:55:44;;;;;;;;;;;;;;;;;;5107795;27;20135;-69
2023/05/09 10:58:27;;;;;;;25.33;17.95;;;;;;;;;;5104359;27;19927;-69
2023/05/09 11:00:53;;;;;;;;;;;;;;;;;;5098635;27;20143;-69
2023/05/09 11:03:20;;;;;;;21.00;17.48;;;;;;;;;;5092086;27;19967;-69
2023/05/09 11:05:47;;;;;;;24.90;18.67;;;;;;;;;;5112830;27;20130;-69
2023/05/09 11:08:20;;;;;;;26.63;19.63;;;;;;;;;;5111149;27;20043;-69
2023/05/09 11:10:47;;;;;;;26.48;18.75;;;;;;;;;;5097218;27;20048;-69
2023/05/09 11:13:13;;;;;;;22.98;18.23;;;;;;;;;;5102656;27;20225;-69
2023/05/09 11:15:58;;;;;;;26.55;18.92;;;;;;;;;;5109506;27;20039;-69
2023/05/09 11:18:24;;;;;;;29.30;19.35;;;;;;;;;;5096697;27;20055;-69
2023/05/09 11:20:50;;;;;;;27.27;18.60;;;;;;;;;;5105505;28;20349;-70
2023/05/09 11:23:20;;;;;;;27.63;19.90;;;;;;;;;;5103668;28;20044;-71
2023/05/09 11:25:47;;;;;;;36.80;20.67;;;;;;;;;;5105825;27;20061;-69
2023/05/09 11:28:29;;;;;;;27.60;18.83;;;;;;;;;;5096037;27;20043;-69
2023/05/09 11:31:15;;;;;;;27.55;18.27;;;;;;;;;;5102086;27;20043;-69
2023/05/09 11:33:42;;;;;;;24.92;19.20;;;;;;;;;;5106609;28;20043;-69
2023/05/09 11:36:17;;;;;;;30.60;20.92;;;;;;;;;;5104455;28;20067;-69
2023/05/09 11:38:44;;;;;;;29.25;19.52;;;;;;;;;;5096421;28;20481;-69
2023/05/09 11:41:11;;;;;;;28.83;21.42;;;;;;;;;;5109168;27;20046;-70
2023/05/09 11:43:38;;;;;;;30.40;21.10;;;;;;;;;;5107514;28;20051;-69
2023/05/09 11:46:04;;;;;;;29.63;21.73;;;;;;;;;;5106607;28;20035;-69
2023/05/09 11:48:31;;;;;;;28.73;18.58;;;;;;;;;;5096129;28;20051;-69
2023/05/09 11:50:57;;;;;;;26.20;18.90;;;;;;;;;;5100839;28;20088;-69
2023/05/09 11:53:23;;;;;;;26.83;20.95;;;;;;;;;;5104922;28;20043;-69
2023/05/09 11:55:49;;;;;;;29.85;21.42;;;;;;;;;;5097936;28;20437;-69
2023/05/09 11:58:16;;;;;;;26.80;19.98;;;;;;;;;;5098189;28;20097;-69
2023/05/09 12:00:45;;;;;;;26.73;20.05;;;;;;;;;;5111692;28;20126;-69
2023/05/09 12:03:12;;;;;;;30.73;21.08;;;;;;;;;;5100675;27;20401;-69
2023/05/09 12:05:38;;;;;;;28.02;18.95;;;;;;;;;;5099733;28;20052;-69
2023/05/09 12:08:05;;;;;;;26.50;19.92;;;;;;;;;;5105933;28;20090;-69
2023/05/09 12:10:32;;;;;;;26.20;19.00;;;;;;;;;;5109863;28;20430;-69
2023/05/09 12:12:58;;;;;;;26.42;19.50;;;;;;;;;;5086551;28;20047;-69
2023/05/09 12:15:24;;;;;;;23.52;17.65;;;;;;;;;;5096353;28;20043;-69
2023/05/09 12:18:04;;;;;;;25.15;18.73;;;;;;;;;;5101298;28;20477;-69
2023/05/09 12:20:39;;;;;;;25.02;19.83;;;;;;;;;;5102426;28;20484;-69
2023/05/09 12:23:06;;;;;;;24.10;18.88;;;;;;;;;;5105856;28;20510;-69
2023/05/09 12:25:32;;;;;;;23.60;18.40;;;;;;;;;;5104489;28;20414;-69
2023/05/09 12:27:58;;;;;;;25.83;20.10;;;;;;;;;;5098295;27;20396;-69
2023/05/09 12:30:24;;;;;;;23.75;19.63;;;;;;;;;;5113816;27;20500;-69
2023/05/09 12:32:50;;;;;;;25.65;19.05;;;;;;;;;;5104583;27;20194;-69
2023/05/09 12:35:16;;;;;;;28.98;18.75;;;;;;;;;;5106117;27;20101;-69
2023/05/09 12:37:55;;;;;;;25.40;19.35;;;;;;;;;;5105736;27;20044;-69
2023/05/09 12:40:21;;;;;;;24.27;19.88;;;;;;;;;;5107228;27;20496;-69
2023/05/09 12:42:47;;;;;;;25.77;18.92;;;;;;;;;;5101060;27;20527;-71
2023/05/09 12:45:14;;;;;;;24.80;19.08;;;;;;;;;;5105524;27;20039;-69
2023/05/09 12:47:44;;;;;;;25.50;18.20;;;;;;;;;;5103082;27;20046;-69
2023/05/09 12:50:13;;;;;;;25.98;18.05;;;;;;;;;;5105923;27;20492;-68
2023/05/09 12:52:41;;;;;;;16.98;13.15;;;;;;;;;;5099977;27;20035;-69
2023/05/09 12:55:11;;;;;;;20.25;13.80;;;;;;;;;;5109921;27;20031;-69
2023/05/09 12:57:38;;;;;;;15.55;12.77;;;;;;;;;;5110946;27;20036;-69
2023/05/09 13:00:05;;;;;;;16.58;12.40;;;;;;;;;;5112911;27;20460;-69
2023/05/09 13:02:36;;;;;;;18.95;12.40;;;;;;;;;;5100840;27;20063;-69
2023/05/09 13:05:06;;;;;;;12.45;10.55;;;;;;;;;;5112747;27;20076;-69
2023/05/09 13:07:42;;;;;;;14.43;10.82;;;;;;;;;;5110030;27;20043;-69
2023/05/09 13:10:20;;;;;;;13.00;10.35;;;;;;;;;;5108913;27;20044;-69
2023/05/09 13:12:47;;;;;;;12.88;9.48;;;;;;;;;;5102970;27;20112;-69
2023/05/09 13:15:15;;;;;;;12.32;9.48;;;;;;;;;;5108592;27;20188;-69
2023/05/09 13:17:41;;;;;;;9.48;8.35;;;;;;;;;;5107156;27;20480;-69
2023/05/09 13:20:08;;;;;;;9.20;7.43;;;;;;;;;;5102927;27;20033;-69
2023/05/09 13:22:34;;;;;;;11.75;7.13;;;;;;;;;;5108357;27;20127;-69
2023/05/09 13:25:00;;;;;;;8.98;6.57;;;;;;;;;;5106858;27;20173;-69
2023/05/09 13:27:26;;;;;;;11.50;6.65;;;;;;;;;;5117689;27;20062;-69
2023/05/09 13:29:53;;;;;;;10.23;7.38;;;;;;;;;;5101770;27;20261;-69
2023/05/09 13:32:19;;;;;;;10.10;7.00;;;;;;;;;;5107337;28;20126;-69
2023/05/09 13:34:45;;;;;;;8.93;7.20;;;;;;;;;;5107014;27;20040;-69
2023/05/09 13:37:11;;;;;;;9.75;7.03;;;;;;;;;;5110604;27;20635;-69
2023/05/09 13:39:38;;;;;;;9.90;7.65;;;;;;;;;;5099212;27;20505;-68
2023/05/09 13:42:04;;;;;;;10.75;7.20;;;;;;;;;;5105152;27;20485;-69
2023/05/09 13:44:30;;;;;;;10.77;7.70;;;;;;;;;;5105758;27;20043;-69
2023/05/09 13:46:57;;;;;;;8.95;6.60;;;;;;;;;;5112910;27;20552;-69
2023/05/09 13:49:23;;;;;;;9.00;6.68;;;;;;;;;;5099111;27;20106;-70
2023/05/09 13:51:49;;;;;;;11.65;8.43;;;;;;;;;;5107353;27;20028;-68
2023/05/09 13:54:18;;;;;;;8.77;6.50;;;;;;;;;;5103645;27;20036;-68
2023/05/09 13:56:44;;;;;;;8.57;6.65;;;;;;;;;;5110466;27;20054;-69
2023/05/09 13:59:11;;;;;;;6.90;4.32;;;;;;;;;;5101297;27;20036;-68
2023/05/09 14:01:37;;;;;;;6.20;4.68;;;;;;;;;;5110250;27;20542;-69
2023/05/09 14:04:03;;;;;;;7.22;4.03;;;;;;;;;;5101766;27;20101;-69
2023/05/09 14:06:29;;;;;;;7.97;4.38;;;;;;;;;;5102793;27;20044;-69
2023/05/09 14:08:56;;;;;;;4.18;3.72;;;;;;;;;;5110877;27;20070;-69
2023/05/09 14:11:24;;;;;;;5.45;3.55;;;;;;;;;;5103089;27;20040;-69
2023/05/09 14:13:51;;;;;;;10.70;4.07;;;;;;;;;;5100325;27;20097;-70
2023/05/09 14:16:18;;;;;;;4.70;3.65;;;;;;;;;;5101048;27;20072;-69
2023/05/09 14:18:44;;;;;;;4.68;3.63;;;;;;;;;;5099601;27;20472;-70
2023/05/09 14:21:10;;;;;;;4.22;3.38;;;;;;;;;;5105042;27;20042;-69
2023/05/09 14:23:36;;;;;;;4.78;3.70;;;;;;;;;;5098871;27;20062;-69